sensor_id;sensor_type;location;lat;lon;timestamp;pressure;altitude;pressure_sealevel;temperature;humidity
84051;BME280;74137;50.136;19.040;2024-03-22T00:00:52;99084.88;;;9.87;60.98
84051;BME280;74137;50.136;19.040;2024-03-22T00:06:56;99084.30;;;9.92;61.01
84051;BME280;74137;50.136;19.040;2024-03-22T00:09:53;99084.84;;;9.95;61.13
84051;BME280;74137;50.136;19.040;2024-03-22T00:12:40;99083.52;;;9.97;61.00
84051;BME280;74137;50.136;19.040;2024-03-22T00:15:09;99083.50;;;9.97;61.07
84051;BME280;74137;50.136;19.040;2024-03-22T00:17:37;99082.95;;;9.97;60.96
84051;BME280;74137;50.136;19.040;2024-03-22T00:20:06;99081.55;;;9.97;60.98
84051;BME280;74137;50.136;19.040;2024-03-22T00:22:47;99079.51;;;9.96;61.05
84051;BME280;74137;50.136;19.040;2024-03-22T00:28:54;99080.75;;;9.96;61.24
84051;BME280;74137;50.136;19.040;2024-03-22T00:31:25;99076.83;;;9.97;61.35
84051;BME280;74137;50.136;19.040;2024-03-22T00:33:53;99081.64;;;9.99;61.41
84051;BME280;74137;50.136;19.040;2024-03-22T00:36:21;99077.72;;;10.00;61.53
84051;BME280;74137;50.136;19.040;2024-03-22T00:38:49;99079.92;;;10.02;61.64
84051;BME280;74137;50.136;19.040;2024-03-22T00:41:17;99081.33;;;10.02;61.70
84051;BME280;74137;50.136;19.040;2024-03-22T00:43:50;99080.61;;;10.02;61.86
84051;BME280;74137;50.136;19.040;2024-03-22T00:46:18;99076.45;;;10.01;61.88
84051;BME280;74137;50.136;19.040;2024-03-22T00:48:46;99077.86;;;10.01;62.01
84051;BME280;74137;50.136;19.040;2024-03-22T00:51:14;99078.09;;;10.00;62.11
84051;BME280;74137;50.136;19.040;2024-03-22T00:53:43;99078.46;;;9.99;62.22
84051;BME280;74137;50.136;19.040;2024-03-22T00:56:13;99079.80;;;10.01;62.37
84051;BME280;74137;50.136;19.040;2024-03-22T00:58:41;99079.41;;;10.01;62.36
84051;BME280;74137;50.136;19.040;2024-03-22T01:01:09;99081.08;;;10.03;62.66
84051;BME280;74137;50.136;19.040;2024-03-22T01:03:38;99079.42;;;10.05;62.55
84051;BME280;74137;50.136;19.040;2024-03-22T01:06:06;99077.26;;;10.06;62.75
84051;BME280;74137;50.136;19.040;2024-03-22T01:08:35;99076.84;;;10.07;62.73
84051;BME280;74137;50.136;19.040;2024-03-22T01:14:22;99077.77;;;10.06;62.97
84051;BME280;74137;50.136;19.040;2024-03-22T01:16:50;99074.95;;;10.06;63.10
84051;BME280;74137;50.136;19.040;2024-03-22T01:19:19;99072.25;;;10.07;63.16
84051;BME280;74137;50.136;19.040;2024-03-22T01:21:49;99074.67;;;10.08;63.25
84051;BME280;74137;50.136;19.040;2024-03-22T01:24:20;99069.25;;;10.08;63.37
84051;BME280;74137;50.136;19.040;2024-03-22T01:27:35;99068.77;;;10.07;63.53
84051;BME280;74137;50.136;19.040;2024-03-22T01:30:04;99069.48;;;10.07;63.75
84051;BME280;74137;50.136;19.040;2024-03-22T01:32:32;99068.26;;;10.04;63.92
84051;BME280;74137;50.136;19.040;2024-03-22T01:35:00;99072.24;;;10.01;63.97
84051;BME280;74137;50.136;19.040;2024-03-22T01:37:28;99077.15;;;10.01;64.19
84051;BME280;74137;50.136;19.040;2024-03-22T01:39:56;99076.12;;;10.01;64.46
84051;BME280;74137;50.136;19.040;2024-03-22T01:42:25;99073.34;;;10.00;64.67
84051;BME280;74137;50.136;19.040;2024-03-22T01:44:53;99075.31;;;9.99;64.96
84051;BME280;74137;50.136;19.040;2024-03-22T01:47:22;99076.75;;;9.98;64.87
84051;BME280;74137;50.136;19.040;2024-03-22T01:50:23;99076.83;;;9.97;65.25
84051;BME280;74137;50.136;19.040;2024-03-22T01:52:52;99079.64;;;9.97;65.44
84051;BME280;74137;50.136;19.040;2024-03-22T01:55:20;99076.78;;;9.98;65.64
84051;BME280;74137;50.136;19.040;2024-03-22T01:57:54;99077.73;;;10.00;65.68
84051;BME280;74137;50.136;19.040;2024-03-22T02:00:55;99079.00;;;10.02;65.83
84051;BME280;74137;50.136;19.040;2024-03-22T02:03:24;99083.10;;;10.05;65.87
84051;BME280;74137;50.136;19.040;2024-03-22T02:05:55;99086.74;;;10.05;65.98
84051;BME280;74137;50.136;19.040;2024-03-22T02:08:23;99088.26;;;10.07;66.02
84051;BME280;74137;50.136;19.040;2024-03-22T02:10:51;99087.34;;;10.07;66.17
84051;BME280;74137;50.136;19.040;2024-03-22T02:13:20;99088.15;;;10.09;66.25
84051;BME280;74137;50.136;19.040;2024-03-22T02:15:48;99089.56;;;10.09;66.31
84051;BME280;74137;50.136;19.040;2024-03-22T02:18:16;99085.13;;;10.09;66.37
84051;BME280;74137;50.136;19.040;2024-03-22T02:27:28;99089.84;;;10.10;66.60
84051;BME280;74137;50.136;19.040;2024-03-22T02:30:39;99089.20;;;10.09;66.71
84051;BME280;74137;50.136;19.040;2024-03-22T02:33:07;99089.23;;;10.08;66.82
84051;BME280;74137;50.136;19.040;2024-03-22T02:35:37;99086.10;;;10.08;66.74
84051;BME280;74137;50.136;19.040;2024-03-22T02:38:06;99086.46;;;10.08;66.83
84051;BME280;74137;50.136;19.040;2024-03-22T02:40:34;99085.42;;;10.07;66.94
84051;BME280;74137;50.136;19.040;2024-03-22T02:43:02;99080.34;;;10.07;66.76
84051;BME280;74137;50.136;19.040;2024-03-22T02:45:31;99078.60;;;10.07;66.93
84051;BME280;74137;50.136;19.040;2024-03-22T02:47:59;99079.92;;;10.09;66.91
84051;BME280;74137;50.136;19.040;2024-03-22T02:50:28;99078.20;;;10.08;66.94
84051;BME280;74137;50.136;19.040;2024-03-22T02:52:56;99078.23;;;10.07;67.05
84051;BME280;74137;50.136;19.040;2024-03-22T02:55:24;99078.52;;;10.05;67.09
84051;BME280;74137;50.136;19.040;2024-03-22T02:57:52;99079.02;;;10.03;67.14
84051;BME280;74137;50.136;19.040;2024-03-22T03:00:21;99081.56;;;10.01;67.08
84051;BME280;74137;50.136;19.040;2024-03-22T03:02:49;99077.77;;;10.00;67.31
84051;BME280;74137;50.136;19.040;2024-03-22T03:05:18;99080.46;;;9.98;67.17
84051;BME280;74137;50.136;19.040;2024-03-22T03:07:46;99078.24;;;9.97;67.25
84051;BME280;74137;50.136;19.040;2024-03-22T03:10:15;99078.30;;;9.96;67.21
84051;BME280;74137;50.136;19.040;2024-03-22T03:12:44;99077.74;;;9.93;67.28
84051;BME280;74137;50.136;19.040;2024-03-22T03:15:12;99077.95;;;9.88;67.50
84051;BME280;74137;50.136;19.040;2024-03-22T03:17:41;99081.39;;;9.86;67.71
84051;BME280;74137;50.136;19.040;2024-03-22T03:20:10;99072.42;;;9.83;67.68
84051;BME280;74137;50.136;19.040;2024-03-22T03:22:42;99069.91;;;9.81;67.71
84051;BME280;74137;50.136;19.040;2024-03-22T03:25:10;99068.97;;;9.79;68.11
84051;BME280;74137;50.136;19.040;2024-03-22T03:27:38;99065.59;;;9.77;67.99
84051;BME280;74137;50.136;19.040;2024-03-22T03:30:07;99066.77;;;9.77;68.16
84051;BME280;74137;50.136;19.040;2024-03-22T03:32:35;99069.04;;;9.78;68.24
84051;BME280;74137;50.136;19.040;2024-03-22T03:35:03;99068.36;;;9.77;68.25
84051;BME280;74137;50.136;19.040;2024-03-22T03:38:02;99068.70;;;9.77;68.53
84051;BME280;74137;50.136;19.040;2024-03-22T03:40:53;99067.90;;;9.76;68.40
84051;BME280;74137;50.136;19.040;2024-03-22T03:43:35;99064.93;;;9.76;68.56
84051;BME280;74137;50.136;19.040;2024-03-22T03:46:25;99062.18;;;9.75;68.49
84051;BME280;74137;50.136;19.040;2024-03-22T03:48:58;99059.60;;;9.73;68.52
84051;BME280;74137;50.136;19.040;2024-03-22T03:51:58;99060.98;;;9.74;68.56
84051;BME280;74137;50.136;19.040;2024-03-22T03:54:38;99058.89;;;9.73;68.64
84051;BME280;74137;50.136;19.040;2024-03-22T04:00:35;99060.27;;;9.77;68.46
84051;BME280;74137;50.136;19.040;2024-03-22T04:03:39;99054.94;;;9.76;68.60
84051;BME280;74137;50.136;19.040;2024-03-22T04:06:15;99053.31;;;9.73;68.54
84051;BME280;74137;50.136;19.040;2024-03-22T04:08:46;99054.18;;;9.69;68.47
84051;BME280;74137;50.136;19.040;2024-03-22T04:11:49;99053.84;;;9.66;68.56
84051;BME280;74137;50.136;19.040;2024-03-22T04:14:17;99060.31;;;9.62;68.70
84051;BME280;74137;50.136;19.040;2024-03-22T04:16:45;99060.27;;;9.60;68.77
84051;BME280;74137;50.136;19.040;2024-03-22T04:19:17;99058.62;;;9.58;68.70
84051;BME280;74137;50.136;19.040;2024-03-22T04:21:45;99061.28;;;9.57;68.81
84051;BME280;74137;50.136;19.040;2024-03-22T04:24:13;99060.55;;;9.58;68.93
84051;BME280;74137;50.136;19.040;2024-03-22T04:26:41;99057.77;;;9.57;69.01
84051;BME280;74137;50.136;19.040;2024-03-22T04:29:11;99051.63;;;9.57;68.98
84051;BME280;74137;50.136;19.040;2024-03-22T04:31:39;99050.96;;;9.57;68.99
84051;BME280;74137;50.136;19.040;2024-03-22T04:34:08;99052.59;;;9.55;69.07
84051;BME280;74137;50.136;19.040;2024-03-22T04:36:36;99051.89;;;9.55;68.88
84051;BME280;74137;50.136;19.040;2024-03-22T04:39:04;99048.95;;;9.55;69.10
84051;BME280;74137;50.136;19.040;2024-03-22T04:41:32;99048.21;;;9.55;69.00
84051;BME280;74137;50.136;19.040;2024-03-22T04:44:02;99042.98;;;9.55;69.00
84051;BME280;74137;50.136;19.040;2024-03-22T04:46:30;99045.45;;;9.54;69.13
84051;BME280;74137;50.136;19.040;2024-03-22T04:48:59;99047.05;;;9.54;69.00
84051;BME280;74137;50.136;19.040;2024-03-22T04:51:27;99049.30;;;9.55;69.15
84051;BME280;74137;50.136;19.040;2024-03-22T04:53:56;99047.67;;;9.56;69.27
84051;BME280;74137;50.136;19.040;2024-03-22T04:56:24;99049.20;;;9.57;69.24
84051;BME280;74137;50.136;19.040;2024-03-22T04:58:52;99053.23;;;9.57;69.23
84051;BME280;74137;50.136;19.040;2024-03-22T05:01:22;99057.92;;;9.58;69.13
84051;BME280;74137;50.136;19.040;2024-03-22T05:03:53;99057.60;;;9.57;69.13
84051;BME280;74137;50.136;19.040;2024-03-22T05:06:25;99060.50;;;9.55;69.22
84051;BME280;74137;50.136;19.040;2024-03-22T05:08:53;99061.98;;;9.53;69.12
84051;BME280;74137;50.136;19.040;2024-03-22T05:11:32;99074.40;;;9.50;69.33
84051;BME280;74137;50.136;19.040;2024-03-22T05:20:06;99075.26;;;9.44;69.35
84051;BME280;74137;50.136;19.040;2024-03-22T05:22:38;99073.94;;;9.45;69.11
84051;BME280;74137;50.136;19.040;2024-03-22T05:25:06;99071.69;;;9.45;68.94
84051;BME280;74137;50.136;19.040;2024-03-22T05:27:36;99073.39;;;9.42;68.82
84051;BME280;74137;50.136;19.040;2024-03-22T05:30:05;99073.05;;;9.38;68.77
84051;BME280;74137;50.136;19.040;2024-03-22T05:32:33;99080.05;;;9.39;68.79
84051;BME280;74137;50.136;19.040;2024-03-22T05:35:01;99082.13;;;9.39;68.55
84051;BME280;74137;50.136;19.040;2024-03-22T05:37:29;99084.20;;;9.40;68.39
84051;BME280;74137;50.136;19.040;2024-03-22T05:39:58;99090.54;;;9.39;68.32
84051;BME280;74137;50.136;19.040;2024-03-22T05:42:26;99099.27;;;9.40;68.24
84051;BME280;74137;50.136;19.040;2024-03-22T05:45:01;99098.20;;;9.40;68.24
84051;BME280;74137;50.136;19.040;2024-03-22T05:47:32;99092.92;;;9.40;68.03
84051;BME280;74137;50.136;19.040;2024-03-22T05:50:08;99090.41;;;9.42;68.10
84051;BME280;74137;50.136;19.040;2024-03-22T05:52:39;99089.88;;;9.42;67.58
84051;BME280;74137;50.136;19.040;2024-03-22T05:55:07;99090.64;;;9.44;67.74
84051;BME280;74137;50.136;19.040;2024-03-22T05:57:35;99086.52;;;9.46;67.75
84051;BME280;74137;50.136;19.040;2024-03-22T06:00:04;99085.95;;;9.47;67.73
84051;BME280;74137;50.136;19.040;2024-03-22T06:02:37;99082.30;;;9.47;67.61
84051;BME280;74137;50.136;19.040;2024-03-22T06:05:05;99080.24;;;9.45;67.26
84051;BME280;74137;50.136;19.040;2024-03-22T06:07:33;99078.79;;;9.43;66.97
84051;BME280;74137;50.136;19.040;2024-03-22T06:10:09;99079.95;;;9.41;66.64
84051;BME280;74137;50.136;19.040;2024-03-22T06:12:40;99076.45;;;9.37;66.72
84051;BME280;74137;50.136;19.040;2024-03-22T06:15:09;99078.11;;;9.35;66.51
84051;BME280;74137;50.136;19.040;2024-03-22T06:17:41;99076.48;;;9.32;66.40
84051;BME280;74137;50.136;19.040;2024-03-22T06:23:08;99078.97;;;9.28;66.33
84051;BME280;74137;50.136;19.040;2024-03-22T06:25:56;99074.08;;;9.28;65.96
84051;BME280;74137;50.136;19.040;2024-03-22T06:29:51;99084.69;;;9.29;65.91
84051;BME280;74137;50.136;19.040;2024-03-22T06:32:53;99087.02;;;9.32;65.86
84051;BME280;74137;50.136;19.040;2024-03-22T06:36:21;99082.77;;;9.33;65.76
84051;BME280;74137;50.136;19.040;2024-03-22T06:39:08;99082.55;;;9.30;65.54
84051;BME280;74137;50.136;19.040;2024-03-22T06:41:38;99082.65;;;9.28;65.48
84051;BME280;74137;50.136;19.040;2024-03-22T06:44:15;99084.66;;;9.26;65.49
84051;BME280;74137;50.136;19.040;2024-03-22T06:46:44;99080.14;;;9.26;65.41
84051;BME280;74137;50.136;19.040;2024-03-22T06:52:17;99083.13;;;9.22;65.31
84051;BME280;74137;50.136;19.040;2024-03-22T06:55:21;99083.64;;;9.22;65.34
84051;BME280;74137;50.136;19.040;2024-03-22T06:58:10;99083.29;;;9.22;65.05
84051;BME280;74137;50.136;19.040;2024-03-22T07:00:41;99087.48;;;9.22;65.37
84051;BME280;74137;50.136;19.040;2024-03-22T07:03:10;99088.21;;;9.22;65.16
84051;BME280;74137;50.136;19.040;2024-03-22T07:06:11;99083.70;;;9.21;65.23
84051;BME280;74137;50.136;19.040;2024-03-22T07:08:40;99082.06;;;9.22;65.32
84051;BME280;74137;50.136;19.040;2024-03-22T07:11:50;99079.04;;;9.23;65.11
84051;BME280;74137;50.136;19.040;2024-03-22T07:15:01;99071.58;;;9.21;65.02
84051;BME280;74137;50.136;19.040;2024-03-22T07:17:32;99076.64;;;9.22;65.07
84051;BME280;74137;50.136;19.040;2024-03-22T07:22:56;99081.27;;;9.24;65.15
84051;BME280;74137;50.136;19.040;2024-03-22T07:25:58;99078.30;;;9.24;65.10
84051;BME280;74137;50.136;19.040;2024-03-22T07:28:27;99077.96;;;9.24;65.18
84051;BME280;74137;50.136;19.040;2024-03-22T07:30:56;99074.63;;;9.24;65.08
84051;BME280;74137;50.136;19.040;2024-03-22T07:33:44;99073.53;;;9.25;64.93
84051;BME280;74137;50.136;19.040;2024-03-22T07:36:15;99072.45;;;9.25;65.29
84051;BME280;74137;50.136;19.040;2024-03-22T07:38:45;99068.88;;;9.27;65.19
84051;BME280;74137;50.136;19.040;2024-03-22T07:41:34;99070.83;;;9.30;65.12
84051;BME280;74137;50.136;19.040;2024-03-22T07:44:18;99072.16;;;9.31;65.13
84051;BME280;74137;50.136;19.040;2024-03-22T07:46:48;99065.95;;;9.33;65.07
84051;BME280;74137;50.136;19.040;2024-03-22T07:49:45;99067.36;;;9.36;65.12
84051;BME280;74137;50.136;19.040;2024-03-22T07:54:55;99059.54;;;9.46;64.99
84051;BME280;74137;50.136;19.040;2024-03-22T07:57:29;99057.66;;;9.52;65.01
84051;BME280;74137;50.136;19.040;2024-03-22T08:00:30;99051.38;;;9.59;64.73
84051;BME280;74137;50.136;19.040;2024-03-22T08:06:13;99049.23;;;9.87;64.74
84051;BME280;74137;50.136;19.040;2024-03-22T08:08:59;99045.05;;;10.01;64.53
84051;BME280;74137;50.136;19.040;2024-03-22T08:11:58;99043.88;;;10.14;64.40
84051;BME280;74137;50.136;19.040;2024-03-22T08:14:27;99046.86;;;10.17;64.04
84051;BME280;74137;50.136;19.040;2024-03-22T08:16:56;99045.31;;;10.17;63.90
84051;BME280;74137;50.136;19.040;2024-03-22T08:19:27;99043.23;;;10.19;64.21
84051;BME280;74137;50.136;19.040;2024-03-22T08:21:56;99048.14;;;10.23;64.01
84051;BME280;74137;50.136;19.040;2024-03-22T08:27:45;99046.91;;;10.26;63.52
84051;BME280;74137;50.136;19.040;2024-03-22T08:33:34;99050.05;;;10.26;63.27
84051;BME280;74137;50.136;19.040;2024-03-22T08:36:03;99052.98;;;10.27;63.27
84051;BME280;74137;50.136;19.040;2024-03-22T08:38:31;99057.41;;;10.30;63.31
84051;BME280;74137;50.136;19.040;2024-03-22T08:40:59;99058.52;;;10.29;63.46
84051;BME280;74137;50.136;19.040;2024-03-22T08:43:40;99059.33;;;10.24;63.20
84051;BME280;74137;50.136;19.040;2024-03-22T08:49:24;99058.20;;;10.18;63.38
84051;BME280;74137;50.136;19.040;2024-03-22T08:54:55;99055.14;;;10.20;63.61
84051;BME280;74137;50.136;19.040;2024-03-22T08:58:03;99052.43;;;10.21;63.85
84051;BME280;74137;50.136;19.040;2024-03-22T09:00:33;99052.45;;;10.25;63.76
84051;BME280;74137;50.136;19.040;2024-03-22T09:03:35;99055.68;;;10.23;63.47
84051;BME280;74137;50.136;19.040;2024-03-22T09:06:04;99052.70;;;10.20;63.62
84051;BME280;74137;50.136;19.040;2024-03-22T09:08:35;99058.79;;;10.17;63.60
84051;BME280;74137;50.136;19.040;2024-03-22T09:11:04;99059.20;;;10.16;63.72
84051;BME280;74137;50.136;19.040;2024-03-22T09:13:32;99059.52;;;10.14;63.85
84051;BME280;74137;50.136;19.040;2024-03-22T09:16:03;99062.58;;;10.12;63.78
84051;BME280;74137;50.136;19.040;2024-03-22T09:18:31;99060.06;;;10.09;63.70
84051;BME280;74137;50.136;19.040;2024-03-22T09:21:01;99057.85;;;10.08;63.85
84051;BME280;74137;50.136;19.040;2024-03-22T09:23:30;99059.34;;;10.10;63.86
84051;BME280;74137;50.136;19.040;2024-03-22T09:25:59;99056.98;;;10.11;63.83
84051;BME280;74137;50.136;19.040;2024-03-22T09:28:33;99054.23;;;10.14;63.74
84051;BME280;74137;50.136;19.040;2024-03-22T09:31:05;99048.15;;;10.19;63.67
84051;BME280;74137;50.136;19.040;2024-03-22T09:33:34;99046.21;;;10.30;63.68
84051;BME280;74137;50.136;19.040;2024-03-22T09:36:02;99046.36;;;10.41;63.52
84051;BME280;74137;50.136;19.040;2024-03-22T09:38:31;99043.33;;;10.49;63.30
84051;BME280;74137;50.136;19.040;2024-03-22T09:41:00;99038.70;;;10.56;63.26
84051;BME280;74137;50.136;19.040;2024-03-22T09:43:39;99038.08;;;10.61;63.15
84051;BME280;74137;50.136;19.040;2024-03-22T09:46:07;99036.66;;;10.68;63.07
84051;BME280;74137;50.136;19.040;2024-03-22T09:48:37;99032.86;;;10.70;63.14
84051;BME280;74137;50.136;19.040;2024-03-22T09:51:06;99031.04;;;10.72;62.94
84051;BME280;74137;50.136;19.040;2024-03-22T09:53:36;99031.82;;;10.76;62.80
84051;BME280;74137;50.136;19.040;2024-03-22T09:56:05;99029.98;;;10.81;62.75
84051;BME280;74137;50.136;19.040;2024-03-22T09:58:34;99024.56;;;10.87;62.50
84051;BME280;74137;50.136;19.040;2024-03-22T10:01:03;99024.69;;;10.95;62.35
84051;BME280;74137;50.136;19.040;2024-03-22T10:03:31;99021.67;;;11.01;62.37
84051;BME280;74137;50.136;19.040;2024-03-22T10:05:59;99022.64;;;11.06;62.32
84051;BME280;74137;50.136;19.040;2024-03-22T10:08:28;99022.89;;;11.11;62.08
84051;BME280;74137;50.136;19.040;2024-03-22T10:10:56;99018.59;;;11.12;61.69
84051;BME280;74137;50.136;19.040;2024-03-22T10:13:24;99013.15;;;11.15;61.70
84051;BME280;74137;50.136;19.040;2024-03-22T10:15:52;99010.14;;;11.22;61.77
84051;BME280;74137;50.136;19.040;2024-03-22T10:18:20;99006.61;;;11.35;61.54
84051;BME280;74137;50.136;19.040;2024-03-22T10:21:00;99011.09;;;11.49;61.71
84051;BME280;74137;50.136;19.040;2024-03-22T10:23:29;99007.19;;;11.64;61.09
84051;BME280;74137;50.136;19.040;2024-03-22T10:25:59;99005.77;;;11.80;60.96
84051;BME280;74137;50.136;19.040;2024-03-22T10:28:27;99005.93;;;11.92;60.64
84051;BME280;74137;50.136;19.040;2024-03-22T10:30:55;99006.87;;;12.01;60.38
84051;BME280;74137;50.136;19.040;2024-03-22T10:33:24;99006.00;;;12.09;60.08
84051;BME280;74137;50.136;19.040;2024-03-22T10:35:53;99001.73;;;12.19;60.22
84051;BME280;74137;50.136;19.040;2024-03-22T10:38:25;98995.42;;;12.29;60.04
84051;BME280;74137;50.136;19.040;2024-03-22T10:40:54;98995.64;;;12.40;59.62
84051;BME280;74137;50.136;19.040;2024-03-22T10:43:22;98991.27;;;12.48;59.43
84051;BME280;74137;50.136;19.040;2024-03-22T10:45:51;98989.80;;;12.52;59.01
84051;BME280;74137;50.136;19.040;2024-03-22T10:48:24;98983.23;;;12.59;59.22
84051;BME280;74137;50.136;19.040;2024-03-22T10:50:53;98977.72;;;12.68;58.85
84051;BME280;74137;50.136;19.040;2024-03-22T10:53:24;98979.52;;;12.79;58.78
84051;BME280;74137;50.136;19.040;2024-03-22T10:55:53;98969.53;;;12.86;57.98
84051;BME280;74137;50.136;19.040;2024-03-22T10:58:22;98968.66;;;12.97;58.06
84051;BME280;74137;50.136;19.040;2024-03-22T11:00:52;98963.35;;;13.05;57.74
84051;BME280;74137;50.136;19.040;2024-03-22T11:03:23;98959.15;;;13.19;57.76
84051;BME280;74137;50.136;19.040;2024-03-22T11:05:56;98957.17;;;13.30;57.03
84051;BME280;74137;50.136;19.040;2024-03-22T11:08:29;98948.67;;;13.39;56.91
84051;BME280;74137;50.136;19.040;2024-03-22T11:10:57;98945.73;;;13.54;57.00
84051;BME280;74137;50.136;19.040;2024-03-22T11:13:25;98937.95;;;13.67;56.67
84051;BME280;74137;50.136;19.040;2024-03-22T11:15:58;98935.07;;;13.81;56.65
84051;BME280;74137;50.136;19.040;2024-03-22T11:18:26;98931.85;;;13.92;56.15
84051;BME280;74137;50.136;19.040;2024-03-22T11:20:55;98927.84;;;14.01;56.03
84051;BME280;74137;50.136;19.040;2024-03-22T11:23:24;98926.71;;;14.10;55.88
84051;BME280;74137;50.136;19.040;2024-03-22T11:25:52;98921.27;;;14.12;55.65
84051;BME280;74137;50.136;19.040;2024-03-22T11:28:20;98922.17;;;14.07;55.23
84051;BME280;74137;50.136;19.040;2024-03-22T11:30:48;98918.46;;;13.97;54.97
84051;BME280;74137;50.136;19.040;2024-03-22T11:33:16;98918.06;;;13.82;54.93
84051;BME280;74137;50.136;19.040;2024-03-22T11:35:44;98912.10;;;13.69;54.89
84051;BME280;74137;50.136;19.040;2024-03-22T11:38:12;98916.58;;;13.60;55.00
84051;BME280;74137;50.136;19.040;2024-03-22T11:40:40;98912.50;;;13.50;54.98
84051;BME280;74137;50.136;19.040;2024-03-22T11:43:12;98912.02;;;13.33;54.99
84051;BME280;74137;50.136;19.040;2024-03-22T11:45:42;98910.45;;;13.14;54.99
84051;BME280;74137;50.136;19.040;2024-03-22T11:48:12;98906.34;;;12.99;55.30
84051;BME280;74137;50.136;19.040;2024-03-22T11:50:40;98902.40;;;12.83;55.36
84051;BME280;74137;50.136;19.040;2024-03-22T11:53:08;98894.16;;;12.75;55.95
84051;BME280;74137;50.136;19.040;2024-03-22T11:55:36;98893.30;;;12.77;56.47
84051;BME280;74137;50.136;19.040;2024-03-22T11:58:09;98888.20;;;12.82;56.26
84051;BME280;74137;50.136;19.040;2024-03-22T12:00:38;98883.65;;;12.85;56.18
84051;BME280;74137;50.136;19.040;2024-03-22T12:03:11;98879.44;;;12.87;56.35
84051;BME280;74137;50.136;19.040;2024-03-22T12:05:40;98881.12;;;12.88;56.04
84051;BME280;74137;50.136;19.040;2024-03-22T12:08:10;98880.08;;;12.91;55.91
84051;BME280;74137;50.136;19.040;2024-03-22T12:10:39;98876.70;;;12.97;55.90
84051;BME280;74137;50.136;19.040;2024-03-22T12:13:11;98881.12;;;13.02;55.60
84051;BME280;74137;50.136;19.040;2024-03-22T12:16:09;98878.30;;;13.07;55.74
84051;BME280;74137;50.136;19.040;2024-03-22T12:18:37;98874.09;;;13.09;55.63
84051;BME280;74137;50.136;19.040;2024-03-22T12:21:06;98869.25;;;13.11;55.61
84051;BME280;74137;50.136;19.040;2024-03-22T12:23:37;98863.95;;;13.16;56.01
84051;BME280;74137;50.136;19.040;2024-03-22T12:26:09;98860.85;;;13.20;56.05
84051;BME280;74137;50.136;19.040;2024-03-22T12:28:38;98859.75;;;13.23;55.55
84051;BME280;74137;50.136;19.040;2024-03-22T12:31:08;98857.99;;;13.23;55.47
84051;BME280;74137;50.136;19.040;2024-03-22T12:33:36;98856.55;;;13.24;55.49
84051;BME280;74137;50.136;19.040;2024-03-22T12:36:10;98855.15;;;13.21;55.39
84051;BME280;74137;50.136;19.040;2024-03-22T12:38:41;98853.76;;;13.23;55.54
84051;BME280;74137;50.136;19.040;2024-03-22T12:41:18;98853.34;;;13.27;55.46
84051;BME280;74137;50.136;19.040;2024-03-22T12:43:47;98855.96;;;13.27;55.12
84051;BME280;74137;50.136;19.040;2024-03-22T12:46:26;98848.73;;;13.27;54.99
84051;BME280;74137;50.136;19.040;2024-03-22T12:48:57;98844.83;;;13.31;55.38
84051;BME280;74137;50.136;19.040;2024-03-22T12:51:30;98840.58;;;13.34;55.37
84051;BME280;74137;50.136;19.040;2024-03-22T12:54:03;98832.65;;;13.39;55.14
84051;BME280;74137;50.136;19.040;2024-03-22T12:56:34;98831.30;;;13.46;55.10
84051;BME280;74137;50.136;19.040;2024-03-22T12:59:02;98830.94;;;13.51;55.05
84051;BME280;74137;50.136;19.040;2024-03-22T13:01:35;98828.45;;;13.56;54.62
84051;BME280;74137;50.136;19.040;2024-03-22T13:04:05;98821.69;;;13.60;54.64
84051;BME280;74137;50.136;19.040;2024-03-22T13:06:35;98816.66;;;13.63;54.64
84051;BME280;74137;50.136;19.040;2024-03-22T13:09:04;98814.48;;;13.70;54.62
84051;BME280;74137;50.136;19.040;2024-03-22T13:11:32;98807.00;;;13.76;54.61
84051;BME280;74137;50.136;19.040;2024-03-22T13:14:00;98805.34;;;13.82;54.50
84051;BME280;74137;50.136;19.040;2024-03-22T13:16:29;98803.23;;;13.84;54.39
84051;BME280;74137;50.136;19.040;2024-03-22T13:18:57;98805.63;;;13.82;54.33
84051;BME280;74137;50.136;19.040;2024-03-22T13:21:25;98800.98;;;13.81;54.25
84051;BME280;74137;50.136;19.040;2024-03-22T13:23:53;98795.48;;;13.76;54.09
84051;BME280;74137;50.136;19.040;2024-03-22T13:26:23;98791.42;;;13.71;53.99
84051;BME280;74137;50.136;19.040;2024-03-22T13:28:54;98787.30;;;13.65;54.01
84051;BME280;74137;50.136;19.040;2024-03-22T13:31:32;98785.95;;;13.57;53.83
84051;BME280;74137;50.136;19.040;2024-03-22T13:34:08;98783.41;;;13.52;54.08
84051;BME280;74137;50.136;19.040;2024-03-22T13:36:38;98782.59;;;13.49;53.86
84051;BME280;74137;50.136;19.040;2024-03-22T13:39:07;98779.75;;;13.47;54.35
84051;BME280;74137;50.136;19.040;2024-03-22T13:41:38;98778.52;;;13.47;54.34
84051;BME280;74137;50.136;19.040;2024-03-22T13:44:11;98775.63;;;13.45;54.27
84051;BME280;74137;50.136;19.040;2024-03-22T13:46:39;98777.76;;;13.39;53.87
84051;BME280;74137;50.136;19.040;2024-03-22T13:49:15;98776.34;;;13.32;54.05
84051;BME280;74137;50.136;19.040;2024-03-22T13:51:46;98776.31;;;13.27;54.01
84051;BME280;74137;50.136;19.040;2024-03-22T13:54:15;98769.41;;;13.19;54.08
84051;BME280;74137;50.136;19.040;2024-03-22T13:56:46;98768.12;;;13.13;54.03
84051;BME280;74137;50.136;19.040;2024-03-22T13:59:14;98762.63;;;13.08;54.15
84051;BME280;74137;50.136;19.040;2024-03-22T14:01:43;98761.06;;;13.05;54.72
84051;BME280;74137;50.136;19.040;2024-03-22T14:04:13;98760.63;;;13.03;54.44
84051;BME280;74137;50.136;19.040;2024-03-22T14:06:42;98754.75;;;12.99;54.27
84051;BME280;74137;50.136;19.040;2024-03-22T14:09:11;98747.85;;;12.97;54.52
84051;BME280;74137;50.136;19.040;2024-03-22T14:11:41;98748.83;;;12.96;54.73
84051;BME280;74137;50.136;19.040;2024-03-22T14:14:10;98745.45;;;12.96;54.59
84051;BME280;74137;50.136;19.040;2024-03-22T14:16:43;98741.17;;;12.99;54.70
84051;BME280;74137;50.136;19.040;2024-03-22T14:19:11;98741.87;;;13.02;54.73